createdAt,value
2024-03-08T09:01:34.440Z,23.9773
2024-03-08T09:02:36.047Z,24.1455
2024-03-08T09:03:37.448Z,24.0627
2024-03-08T09:04:38.857Z,24.0333
2024-03-08T09:05:40.806Z,24.0894
2024-03-08T09:06:43.901Z,23.9773
2024-03-08T09:07:45.289Z,24.0627
2024-03-08T09:08:46.633Z,24.1882
2024-03-08T09:09:47.959Z,24.2042
2024-03-08T09:10:51.832Z,24.1321
2024-03-08T09:11:53.603Z,24.0761
2024-03-08T09:12:54.958Z,24.1882
2024-03-08T09:13:56.410Z,24.2603
2024-03-08T09:14:57.741Z,24.1615
2024-03-08T09:15:59.048Z,24.2870
2024-03-08T09:18:12.505Z,24.2900
2024-03-08T09:19:13.625Z,24.3417
2024-03-08T09:20:13.842Z,24.3743
2024-03-08T09:21:14.670Z,24.4086
2024-03-08T09:22:15.386Z,24.4049
2024-03-08T09:23:16.516Z,24.4029
2024-03-08T09:25:19.342Z,24.3921
2024-03-08T09:27:12.370Z,24.4233
2024-03-08T09:28:11.503Z,24.4626
2024-03-08T09:29:12.749Z,24.5211
2024-03-08T09:30:13.981Z,24.5305
2024-03-08T09:31:15.252Z,24.5054
2024-03-08T09:32:16.495Z,24.4860
2024-03-08T09:33:17.827Z,24.4808
2024-03-08T09:34:22.914Z,24.4733
2024-03-08T09:35:19.731Z,24.4720
2024-03-08T09:36:21.013Z,24.4839
2024-03-08T09:37:22.271Z,24.4874
2024-03-08T09:38:23.516Z,24.4926
2024-03-08T09:39:27.164Z,24.4907
2024-03-08T09:40:26.739Z,24.5004
2024-03-08T09:41:27.983Z,24.5046
2024-03-08T09:42:29.331Z,24.5024
2024-03-08T09:43:30.604Z,24.5035
2024-03-08T09:44:31.832Z,24.5064
2024-03-08T09:46:34.298Z,24.5153
2024-03-08T09:47:35.638Z,24.5160
2024-03-08T09:49:29.349Z,24.4656
2024-03-08T09:50:37.147Z,24.6981
2024-03-08T09:51:44.958Z,24.8640
2024-03-08T09:52:52.879Z,24.8771
2024-03-08T09:54:02.918Z,24.8928
2024-03-08T09:56:36.897Z,24.8498
2024-03-08T09:57:44.674Z,24.8972
2024-03-08T10:00:24.966Z,24.9576
2024-03-08T10:01:33.217Z,24.8506
2024-03-08T10:02:41.020Z,24.8503
2024-03-08T10:03:48.900Z,24.8316
2024-03-08T10:04:56.741Z,24.8013
2024-03-08T10:06:04.671Z,24.7648
2024-03-08T10:07:12.518Z,24.7374
2024-03-08T10:08:20.347Z,24.7050
2024-03-08T10:09:28.218Z,24.6744
2024-03-08T10:10:36.046Z,24.6429
2024-03-08T10:11:43.860Z,24.6076
2024-03-08T10:12:51.672Z,24.5856
2024-03-08T10:13:59.538Z,24.5620
2024-03-08T10:15:07.359Z,24.5368
2024-03-08T10:16:15.270Z,24.5143
2024-03-08T10:17:23.081Z,24.4867
2024-03-08T10:18:30.922Z,24.4621
2024-03-08T10:19:38.770Z,24.4381
2024-03-08T10:20:46.616Z,24.4175
2024-03-08T10:21:54.533Z,24.3993
2024-03-08T10:23:10.123Z,24.3792
2024-03-08T10:24:07.750Z,24.3632
2024-03-08T10:25:15.645Z,24.3472
2024-03-08T10:26:23.549Z,24.3362
2024-03-08T10:27:33.175Z,24.3261
2024-03-08T10:28:41.157Z,24.3153
2024-03-08T10:29:49.048Z,24.3063
2024-03-08T10:30:56.932Z,24.2979
2024-03-08T10:32:04.885Z,24.2891
2024-03-08T10:33:12.832Z,24.2821
2024-03-08T10:36:07.457Z,24.1835
2024-03-08T10:37:15.244Z,24.1378
2024-03-08T10:38:23.087Z,24.1407
2024-03-08T10:39:31.025Z,24.1581
2024-03-08T10:44:58.407Z,24.1435
2024-03-08T16:38:29.680Z,21.2779
2024-03-08T16:39:37.475Z,21.2691
2024-03-08T16:40:45.642Z,21.3201
2024-03-08T16:41:49.880Z,21.3718
2024-03-08T16:42:57.906Z,21.4124
2024-03-08T16:44:05.810Z,21.4653
2024-03-08T16:45:13.681Z,21.5233
2024-03-08T16:46:21.939Z,21.5794
2024-03-08T16:47:30.149Z,21.6295
2024-03-08T16:51:39.917Z,22.4438
2024-03-08T16:52:49.169Z,22.5194
2024-03-08T17:07:06.054Z,19.3756
2024-03-08T17:08:13.864Z,19.3888
2024-03-08T17:09:21.856Z,19.4173
2024-03-08T17:10:29.952Z,19.4166
2024-03-08T17:11:37.972Z,19.4240
2024-03-08T17:12:45.793Z,19.4268
2024-03-08T17:13:53.693Z,19.4243
2024-03-08T17:15:01.609Z,19.4222
2024-03-08T17:16:09.405Z,19.4228
2024-03-08T17:17:17.384Z,19.4223
2024-03-08T17:18:25.234Z,19.4244
2024-03-08T17:19:33.118Z,19.4246
2024-03-08T17:20:40.905Z,19.4250
2024-03-08T17:21:48.789Z,19.4267
2024-03-08T17:22:57.623Z,19.4287
2024-03-08T17:23:58.088Z,19.4294
2024-03-08T17:25:05.944Z,19.4312
2024-03-08T17:26:13.987Z,19.4329
2024-03-08T17:27:22.485Z,19.4340
2024-03-08T17:28:30.333Z,19.4360
2024-03-08T17:29:38.192Z,19.4378
2024-03-08T17:30:45.974Z,19.4399
2024-03-08T17:31:53.863Z,19.4423
2024-03-08T17:33:02.032Z,19.4449
2024-03-08T17:34:09.856Z,19.4474
2024-03-08T17:35:17.707Z,19.4501
2024-03-08T17:36:25.522Z,19.4536
2024-03-08T17:38:07.544Z,19.5642
2024-03-08T17:39:15.343Z,18.3946
2024-03-08T17:40:23.323Z,17.9820
2024-03-08T17:41:31.167Z,18.9190
2024-03-08T17:42:39.044Z,19.0215
2024-03-08T17:43:47.032Z,19.0852
2024-03-08T17:44:54.883Z,19.1079
2024-03-08T17:46:02.755Z,19.1360
2024-03-08T17:47:10.660Z,19.1660
2024-03-08T17:48:19.312Z,19.1623
2024-03-08T17:49:27.366Z,19.1900
2024-03-08T17:50:35.222Z,19.2061
2024-03-08T17:51:43.082Z,19.2117
2024-03-08T17:52:50.988Z,19.2167
2024-03-08T17:53:58.906Z,19.2134
2024-03-08T17:55:06.741Z,19.2184
2024-03-08T17:56:14.767Z,19.2221
2024-03-08T17:57:22.580Z,19.2184
2024-03-08T17:58:30.485Z,19.2147
2024-03-08T17:59:38.330Z,19.2151
2024-03-08T18:00:46.214Z,19.2217
2024-03-08T18:01:54.150Z,19.2224
2024-03-08T18:03:02.013Z,19.2067
2024-03-08T18:04:09.881Z,19.2047
2024-03-08T18:05:17.702Z,19.2081
2024-03-08T18:06:25.593Z,19.1904
2024-03-08T18:07:33.433Z,19.1900
2024-03-08T18:08:41.313Z,19.1774
2024-03-08T18:09:49.290Z,19.1757
2024-03-08T18:10:57.185Z,19.1760
2024-03-08T18:12:05.086Z,19.1657
2024-03-08T18:13:12.956Z,19.1483
2024-03-08T18:14:20.840Z,19.1490
2024-03-08T18:15:28.700Z,19.1436
2024-03-08T18:16:36.622Z,19.1517
2024-03-08T18:17:44.456Z,19.1436
2024-03-08T18:18:52.294Z,19.1340
2024-03-08T18:20:00.240Z,19.1270
2024-03-08T18:21:08.069Z,19.1183
2024-03-08T18:22:15.935Z,19.1233
2024-03-08T18:23:23.801Z,19.1179
2024-03-08T18:24:31.692Z,19.1146
2024-03-08T18:25:39.597Z,19.0956
2024-03-08T18:26:47.379Z,19.0852
2024-03-08T18:27:55.237Z,19.0906
2024-03-08T18:29:03.149Z,19.0812
2024-03-08T18:30:10.978Z,19.0782
2024-03-08T18:31:18.979Z,19.0709
